sensor_id;sensor_type;location;lat;lon;timestamp;pressure;altitude;pressure_sealevel;temperature;humidity
61740;BME280;47645;45.288;12.038;2023-02-03T00:01:45;1024.8360139945923;;;2.6498046875;100
61740;BME280;47645;45.288;12.038;2023-02-03T00:11:45;1024.7378536820613;;;2.7568359375;100
61740;BME280;47645;45.288;12.038;2023-02-03T00:21:45;1024.7395065345806;;;2.889453125;100
61740;BME280;47645;45.288;12.038;2023-02-03T00:31:45;1024.9078316611015;;;3.210546875;100
61740;BME280;47645;45.288;12.038;2023-02-03T00:41:46;1025.0404385392142;;;3.25625;100
61740;BME280;47645;45.288;12.038;2023-02-03T00:51:46;1024.9640264606046;;;3.3939453125;100
61740;BME280;47645;45.288;12.038;2023-02-03T01:01:46;1024.8362441717936;;;3.32265625;100
61740;BME280;47645;45.288;12.038;2023-02-03T01:11:46;1025.0081387880887;;;3.026953125;100
61740;BME280;47645;45.288;12.038;2023-02-03T01:21:47;1025.0816827436718;;;3.11875;100
61740;BME280;47645;45.288;12.038;2023-02-03T01:31:47;1025.0314088334414;;;3.006640625;98.66559351298693
61740;BME280;47645;45.288;12.038;2023-02-03T01:41:47;1024.957780324428;;;3.0984375;94.03999669489424
61740;BME280;47645;45.288;12.038;2023-02-03T01:51:48;1024.8343014024447;;;2.675390625;100
61740;BME280;47645;45.288;12.038;2023-02-03T02:01:48;1025.0299358906827;;;2.4919921875;100
61740;BME280;47645;45.288;12.038;2023-02-03T02:11:48;1025.2637523230806;;;2.6142578125;100
61740;BME280;47645;45.288;12.038;2023-02-03T02:21:56;1025.2838962647133;;;2.58359375;97.62356663748614
61740;BME280;47645;45.288;12.038;2023-02-03T02:32:04;1025.1563262809004;;;2.7162109375;100
61740;BME280;47645;45.288;12.038;2023-02-03T02:41:53;1025.2167240204285;;;2.5990234375;94.190261216642
61740;BME280;47645;45.288;12.038;2023-02-03T02:51:48;1025.5734423211763;;;2.3390625;100
61740;BME280;47645;45.288;12.038;2023-02-03T03:01:49;1025.6780871325266;;;2.48671875;100
61740;BME280;47645;45.288;12.038;2023-02-03T03:11:50;1025.6224205694975;;;2.237109375;100
61740;BME280;47645;45.288;12.038;2023-02-03T03:21:52;1025.6474167249614;;;2.216796875;100
61740;BME280;47645;45.288;12.038;2023-02-03T03:31:49;1025.7128168264892;;;2.0892578125;100
61740;BME280;47645;45.288;12.038;2023-02-03T03:41:56;1025.7517879437812;;;2.03828125;100
61740;BME280;47645;45.288;12.038;2023-02-03T03:51:53;1025.5882804711177;;;1.99765625;100
61740;BME280;47645;45.288;12.038;2023-02-03T04:01:50;1025.6360735736123;;;2.0638671875;100
61740;BME280;47645;45.288;12.038;2023-02-03T04:12:08;1025.6822135256814;;;1.905859375;100
61740;BME280;47645;45.288;12.038;2023-02-03T04:21:50;1025.9647733951651;;;1.8345703125;100
61740;BME280;47645;45.288;12.038;2023-02-03T04:31:50;1025.766253264629;;;1.7224609375;100
61740;BME280;47645;45.288;12.038;2023-02-03T04:41:50;1025.79553543956;;;1.9669921875;100
61740;BME280;47645;45.288;12.038;2023-02-03T04:51:51;1025.8787727510498;;;1.819140625;100
61740;BME280;47645;45.288;12.038;2023-02-03T05:01:51;1026.0364126553295;;;1.778515625;100
61740;BME280;47645;45.288;12.038;2023-02-03T05:11:51;1025.9817919661314;;;1.6458984375;100
61740;BME280;47645;45.288;12.038;2023-02-03T05:21:51;1025.90886583081;;;1.8548828125;100
61740;BME280;47645;45.288;12.038;2023-02-03T05:31:51;1026.1870927677082;;;1.78359375;100
61740;BME280;47645;45.288;12.038;2023-02-03T05:41:51;1026.165310930699;;;2.11484375;100
61740;BME280;47645;45.288;12.038;2023-02-03T05:51:53;1025.7728465033067;;;2.237109375;100
61740;BME280;47645;45.288;12.038;2023-02-03T06:01:52;1025.8967995919097;;;2.25234375;100
61740;BME280;47645;45.288;12.038;2023-02-03T06:11:54;1025.7549422895374;;;2.1962890625;100
61740;BME280;47645;45.288;12.038;2023-02-03T06:21:53;1025.783868491192;;;2.109765625;100
61740;BME280;47645;45.288;12.038;2023-02-03T06:31:53;1025.7299602579906;;;2.130078125;100
61740;BME280;47645;45.288;12.038;2023-02-03T06:41:55;1025.7085899028302;;;2.2931640625;100
61740;BME280;47645;45.288;12.038;2023-02-03T06:51:53;1026.0919656558606;;;2.3033203125;100
61740;BME280;47645;45.288;12.038;2023-02-03T07:01:54;1026.3154914483086;;;2.3900390625;100
61740;BME280;47645;45.288;12.038;2023-02-03T07:11:54;1026.3233233573678;;;2.481640625;100
61740;BME280;47645;45.288;12.038;2023-02-03T07:21:54;1026.2748603920568;;;2.8232421875;100
61740;BME280;47645;45.288;12.038;2023-02-03T07:31:54;1026.5031857428926;;;2.8587890625;100
61740;BME280;47645;45.288;12.038;2023-02-03T07:41:54;1026.206818811374;;;3.220703125;100
61740;BME280;47645;45.288;12.038;2023-02-03T07:51:56;1026.5886976030456;;;3.2615234375;100
61740;BME280;47645;45.288;12.038;2023-02-03T08:01:55;1026.5546971958654;;;3.34296875;100
61740;BME280;47645;45.288;12.038;2023-02-03T08:11:55;1026.363331035957;;;3.79140625;100
61740;BME280;47645;45.288;12.038;2023-02-03T08:21:56;1026.1356544710225;;;3.9291015625;100
61740;BME280;47645;45.288;12.038;2023-02-03T08:31:58;1026.267148700836;;;4.3623046875;100
61740;BME280;47645;45.288;12.038;2023-02-03T08:41:56;1026.16066302807;;;4.566015625;100
61740;BME280;47645;45.288;12.038;2023-02-03T08:51:57;1026.2391971718907;;;5.009375;100
61740;BME280;47645;45.288;12.038;2023-02-03T09:01:59;1026.5438067938524;;;4.8462890625;100
61740;BME280;47645;45.288;12.038;2023-02-03T09:12:01;1026.6683705302532;;;5.0248046875;100
61740;BME280;47645;45.288;12.038;2023-02-03T09:21:58;1026.5262412017003;;;5.396875;100
61740;BME280;47645;45.288;12.038;2023-02-03T09:31:59;1026.494197905708;;;5.6923828125;100
61740;BME280;47645;45.288;12.038;2023-02-03T09:42:16;1026.4983523570165;;;5.9369140625;100
61740;BME280;47645;45.288;12.038;2023-02-03T09:52:03;1026.3705478545976;;;6.49765625;98.14496125872104
61740;BME280;47645;45.288;12.038;2023-02-03T10:02:04;1026.4939436510383;;;6.7779296875;95.69403709300671
61740;BME280;47645;45.288;12.038;2023-02-03T10:12:15;1026.6442627840743;;;7.1345703125;94.36671961271401
61740;BME280;47645;45.288;12.038;2023-02-03T10:22:00;1026.6099031603349;;;7.272265625;93.81808419338198
61740;BME280;47645;45.288;12.038;2023-02-03T10:32:00;1026.5891517543914;;;7.4607421875;92.07717038401323
61740;BME280;47645;45.288;12.038;2023-02-03T10:42:02;1026.504945462033;;;7.7921875;88.46005601704428
61740;BME280;47645;45.288;12.038;2023-02-03T10:52:03;1026.0421478442086;;;8.011328125;87.15415079584974
61740;BME280;47645;45.288;12.038;2023-02-03T11:02:08;1025.8519498140213;;;8.69921875;85.24206825127091
61740;BME280;47645;45.288;12.038;2023-02-03T11:12:07;1025.7704564430762;;;9.3669921875;82.6452698783972
61740;BME280;47645;45.288;12.038;2023-02-03T11:22:02;1025.5279711019614;;;9.7796875;80.58431583506052
61740;BME280;47645;45.288;12.038;2023-02-03T11:32:12;1025.1610445829572;;;10.162109375;79.16388745470675
61740;BME280;47645;45.288;12.038;2023-02-03T11:42:20;1025.0416605013488;;;10.4423828125;78.38629553993849
61740;BME280;47645;45.288;12.038;2023-02-03T11:52:11;1024.8918448860813;;;10.748046875;75.98139083579011
61740;BME280;47645;45.288;12.038;2023-02-03T12:02:30;1024.6290592389937;;;11.24765625;75.27224426650338
61740;BME280;47645;45.288;12.038;2023-02-03T12:12:25;1024.5529191509827;;;11.262890625;74.95249126094288
61740;BME280;47645;45.288;12.038;2023-02-03T12:22:11;1024.353031229796;;;11.5380859375;74.2610442365342
61740;BME280;47645;45.288;12.038;2023-02-03T12:32:12;1024.2827617311084;;;12.098828125;73.34220271856846
61740;BME280;47645;45.288;12.038;2023-02-03T12:42:14;1024.0469883908468;;;11.9763671875;72.74198531037065
61740;BME280;47645;45.288;12.038;2023-02-03T12:52:15;1023.9348437270186;;;11.701171875;73.16545590495699
61740;BME280;47645;45.288;12.038;2023-02-03T13:02:15;1023.8169031754329;;;11.3392578125;75.54891792241231
61740;BME280;47645;45.288;12.038;2023-02-03T13:12:11;1023.7108218982738;;;11.3341796875;75.78691790826723
61740;BME280;47645;45.288;12.038;2023-02-03T13:22:11;1023.556295444638;;;11.3189453125;77.28174199187696
61740;BME280;47645;45.288;12.038;2023-02-03T13:32:21;1023.6789804950008;;;11.262890625;76.52072263820327
61740;BME280;47645;45.288;12.038;2023-02-03T13:42:20;1023.4129279104579;;;11.369921875;78.20497703640252
61740;BME280;47645;45.288;12.038;2023-02-03T13:52:23;1023.6416378688649;;;11.155859375;76.95110756879723
61740;BME280;47645;45.288;12.038;2023-02-03T14:02:44;1023.6258017162942;;;10.95703125;77.91619232735528
61740;BME280;47645;45.288;12.038;2023-02-03T14:12:20;1023.5703975203073;;;10.9775390625;77.76291056882182
61740;BME280;47645;45.288;12.038;2023-02-03T14:22:15;1023.5106125846246;;;10.5900390625;78.88430563147838
61740;BME280;47645;45.288;12.038;2023-02-03T14:32:12;1023.3956375358342;;;10.4423828125;79.9563663460558
61740;BME280;47645;45.288;12.038;2023-02-03T14:42:18;1023.3011495248596;;;10.620703125;78.21355907882716
61740;BME280;47645;45.288;12.038;2023-02-03T14:52:21;1023.1963817902304;;;10.52890625;79.1652290113574
61740;BME280;47645;45.288;12.038;2023-02-03T15:02:19;1023.0814663595153;;;10.284375;80.26175039031817
61740;BME280;47645;45.288;12.038;2023-02-03T15:12:16;1023.020259292039;;;10.0447265625;82.13957169683914
61740;BME280;47645;45.288;12.038;2023-02-03T15:22:22;1023.0307835129353;;;9.5810546875;82.98254405834537
61740;BME280;47645;45.288;12.038;2023-02-03T15:32:18;1022.6073318058853;;;9.10703125;85.42844727146165
61740;BME280;47645;45.288;12.038;2023-02-03T15:42:19;1022.9298018270969;;;8.8470703125;86.45471152111651
61740;BME280;47645;45.288;12.038;2023-02-03T15:52:17;1022.7960948961102;;;8.5005859375;88.11893586581083
61740;BME280;47645;45.288;12.038;2023-02-03T16:02:17;1022.481729798141;;;8.05703125;87.03279085132138
61740;BME280;47645;45.288;12.038;2023-02-03T16:12:17;1022.1054123784703;;;7.7462890625;88.07531291850675
61740;BME280;47645;45.288;12.038;2023-02-03T16:22:26;1022.0393137526406;;;7.4607421875;93.63545696951941
61740;BME280;47645;45.288;12.038;2023-02-03T16:52:17;1022.6200246001183;;;6.706640625;94.82375117978906
61740;BME280;47645;45.288;12.038;2023-02-03T17:02:17;1022.2668329718614;;;6.8390625;90.58041897372998
61740;BME280;47645;45.288;12.038;2023-02-03T17:12:18;1022.1634201248813;;;6.737109375;89.48114521664499
61740;BME280;47645;45.288;12.038;2023-02-03T17:22:18;1021.5760309391203;;;6.6607421875;89.55602543228399
61740;BME280;47645;45.288;12.038;2023-02-03T17:32:18;1021.4767239648188;;;6.1052734375;92.68505605979807
61740;BME280;47645;45.288;12.038;2023-02-03T17:42:19;1021.5258637999677;;;6.054296875;90.97035897399739
61740;BME280;47645;45.288;12.038;2023-02-03T17:52:19;1021.1814386854771;;;5.9369140625;92.57055135635596
61740;BME280;47645;45.288;12.038;2023-02-03T18:02:20;1021.2587838428278;;;5.6056640625;100
61740;BME280;47645;45.288;12.038;2023-02-03T18:12:20;1021.1208188667516;;;5.616015625;100
61740;BME280;47645;45.288;12.038;2023-02-03T18:22:20;1021.2036433192635;;;5.4375;100
61740;BME280;47645;45.288;12.038;2023-02-03T18:32:20;1021.0013375351182;;;5.4681640625;98.2223881008028
61740;BME280;47645;45.288;12.038;2023-02-03T18:42:20;1020.8413913085034;;;5.442578125;98.35579629753269
61740;BME280;47645;45.288;12.038;2023-02-03T18:52:21;1020.6955246720862;;;5.3560546875;100
61740;BME280;47645;45.288;12.038;2023-02-03T19:02:25;1020.2369386149289;;;5.4630859375;100
61740;BME280;47645;45.288;12.038;2023-02-03T19:12:22;1020.438169703087;;;5.2234375;100
61740;BME280;47645;45.288;12.038;2023-02-03T19:22:22;1020.1975910630373;;;5.28984375;100
61740;BME280;47645;45.288;12.038;2023-02-03T19:32:22;1020.1572387525587;;;5.3458984375;98.24140708224986
61740;BME280;47645;45.288;12.038;2023-02-03T19:42:22;1020.1338900840958;;;5.111328125;96.9861520237272
61740;BME280;47645;45.288;12.038;2023-02-03T19:52:23;1020.1413159834457;;;5.11640625;95.60625382960905
61740;BME280;47645;45.288;12.038;2023-02-03T20:02:23;1020.1629169783489;;;5.2234375;92.81694915714377
61740;BME280;47645;45.288;12.038;2023-02-03T20:12:23;1020.2022314652396;;;4.973828125;94.54635371780992
61740;BME280;47645;45.288;12.038;2023-02-03T20:22:23;1020.1848110196324;;;5.0654296875;92.82449536780516
61740;BME280;47645;45.288;12.038;2023-02-03T20:32:24;1020.3555562999836;;;5.0603515625;91.78758572872161
61740;BME280;47645;45.288;12.038;2023-02-03T20:42:24;1020.6014609568687;;;4.4845703125;100
61740;BME280;47645;45.288;12.038;2023-02-03T20:52:25;1020.5192453449954;;;4.44375;98.73631216718348
61740;BME280;47645;45.288;12.038;2023-02-03T21:02:33;1020.4607019248665;;;4.448828125;98.27615158398626
61740;BME280;47645;45.288;12.038;2023-02-03T21:12:26;1020.1394834910592;;;4.566015625;96.89886743597881
61740;BME280;47645;45.288;12.038;2023-02-03T21:22:27;1020.2338177897317;;;4.6068359375;93.65970296328194
61740;BME280;47645;45.288;12.038;2023-02-03T21:32:34;1020.3898814571418;;;4.6271484375;92.3195320224931
61740;BME280;47645;45.288;12.038;2023-02-03T21:42:40;1020.2575568993275;;;4.4744140625;92.16083540271121
61740;BME280;47645;45.288;12.038;2023-02-03T21:52:36;1020.1937561760129;;;4.214453125;93.8136570478462
61740;BME280;47645;45.288;12.038;2023-02-03T22:02:48;1020.0706363830566;;;4.311328125;92.09373959294244
61740;BME280;47645;45.288;12.038;2023-02-03T22:12:27;1020.2562354675396;;;4.1533203125;93.16388418375594
61740;BME280;47645;45.288;12.038;2023-02-03T22:22:28;1020.1090705912549;;;3.7353515625;100
61740;BME280;47645;45.288;12.038;2023-02-03T22:32:27;1020.1339815094054;;;3.893359375;94.51711189473497
61740;BME280;47645;45.288;12.038;2023-02-03T22:42:29;1020.1691958197229;;;3.9953125;92.22880336073545
61740;BME280;47645;45.288;12.038;2023-02-03T22:52:28;1020.1517492552026;;;3.980078125;91.7906498238055
61740;BME280;47645;45.288;12.038;2023-02-03T23:02:28;1019.8036037493454;;;3.878125;91.48786260941834
61740;BME280;47645;45.288;12.038;2023-02-03T23:12:29;1019.7459789388416;;;3.5671875;94.06376594624986
61740;BME280;47645;45.288;12.038;2023-02-03T23:22:29;1019.6821218989775;;;3.7099609375;92.21253999292641
61740;BME280;47645;45.288;12.038;2023-02-03T23:32:30;1019.5421227942678;;;3.7455078125;91.18807149227897
61740;BME280;47645;45.288;12.038;2023-02-03T23:42:30;1019.4111333787047;;;3.444921875;92.99995792122535
61740;BME280;47645;45.288;12.038;2023-02-03T23:52:35;1019.2231848395251;;;3.572265625;91.30282420592486
